Airfield :
LOGIN :

Register | Disclaimer

   EN    FR    IT 

 










Legend :    VFR   Marginal VFR   IFR   Intensive IFR   Very Intensive IFR
Visi :
Ceiling :
>= 8 km
>= 3000ft
5 to 8 km
1000 to 3000 ft
1500m to 5 km
500 to 1000 ft
800 to 1500m
200 to 500 ft
< 800m
< 200 ft
Symbols :   Thunderstorms  Fog  Heavy snow  Heavy precipitations  Wind > 20 kt
SIGMETs :     Misc.  Thunderstorms  Icing  Turbulence  Mountain Waves  Volcanic Ashes






- Airport Elevation : 405 ft
- IATA code : ODH


EGVO - RAF Odiham

CURRENT METAR :
  • 300220Z AUTO 09006KT 6000 BR OVC003/// 05/05 Q1022

EXPIRED METARs :
  • 300150Z AUTO 08004KT 6000 BR OVC003/// 05/05 Q1022
  • 300120Z AUTO 07003KT 6000 BR OVC003/// 05/05 Q1022
  • 300050Z AUTO 07003KT 4500 BR OVC003/// 05/05 Q1022
  • 300020Z AUTO 08002KT 3400 BR OVC003/// 05/05 Q1022
  • 292350Z AUTO 03002KT 3700 BR BKN003/// BKN012/// 05/05 Q1022

TAF TAF EGVO
Valid from the 29 at 21:00 until the 30 at 09:00 UTC


291948Z 2921/3009 11003KT 2000 BR BKN002
TEMPO 2921/3009 OVC005
PROB40 2921/3009 0600 FG OVC001
PROB30
TEMPO 2921/3009 5000 BR



MET'MAP, your aeronautical weather chart ! - Copyright ORBIFLY December 2007 - Disclaimer

ORBIFLY MET'MAP TEAM :

Programming & Development : Alexandra Zaïnal
Original concept : Baudouin d'Aumeries
Technical & hardware support : Manuel Goepfert
Assistance : Marc-Olivier Méhu




SOURCES & CREDITS :

   NOAA